Time;durP1;ratioP1;P1;durP2;ratioP2;P2;SDS_P1;SDS_P2;PMS_P1;PMS_P2;Temp;Humidity;BMP_temperature;BMP_pressure;BME280_temperature;BME280_humidity;BME280_pressure;Samples;Min_cycle;Max_cycle;Signal;HPM_P1;HPM_P2
2023/05/30 00:00:37;;;;;;;10.32;6.25;;;18.40;99.90;;;;;;4893470;29;20077;-80
2023/05/30 00:03:18;;;;;;;10.90;5.75;;;18.40;99.90;;;;;;5574519;23;20032;-81
2023/05/30 00:09:32;;;;;;;12.02;6.13;;;18.40;99.90;;;;;;4890033;29;20037;-81
2023/05/30 00:16:46;;;;;;;9.18;6.15;;;18.20;99.90;;;;;;5176242;23;20040;-79
2023/05/30 00:19:45;;;;;;;9.18;5.78;;;18.20;99.90;;;;;;4913712;29;20056;-79
2023/05/30 00:22:14;;;;;;;9.65;5.70;;;18.00;99.90;;;;;;4904387;29;20060;-82
2023/05/30 00:24:59;;;;;;;12.57;5.30;;;18.00;99.90;;;;;;4908475;29;20455;-81
2023/05/30 00:27:28;;;;;;;15.88;5.70;;;18.10;99.90;;;;;;4892088;29;20047;-82
2023/05/30 00:33:10;;;;;;;11.35;5.72;;;18.00;99.90;;;;;;5433148;23;20056;-78
2023/05/30 00:35:39;;;;;;;9.13;4.72;;;17.90;99.90;;;;;;4919874;29;20051;-82
2023/05/30 00:38:08;;;;;;;9.38;4.50;;;17.80;99.90;;;;;;4896258;29;20044;-81
2023/05/30 00:40:40;;;;;;;6.32;4.85;;;17.90;99.90;;;;;;4882341;29;20076;-84
2023/05/30 00:43:26;;;;;;;7.40;4.75;;;17.90;99.90;;;;;;4923421;29;20040;-82
2023/05/30 00:46:29;;;;;;;9.27;5.10;;;17.90;99.90;;;;;;4922011;29;20051;-79
2023/05/30 00:49:17;;;;;;;8.43;4.75;;;17.90;99.90;;;;;;5384587;23;20056;-82
2023/05/30 00:54:55;;;;;;;10.68;5.63;;;17.70;99.90;;;;;;4832060;27;20052;-82
2023/05/30 00:57:33;;;;;;;10.88;6.00;;;17.60;99.90;;;;;;4883538;29;20091;-82
2023/05/30 01:00:38;;;;;;;7.80;5.47;;;17.60;99.90;;;;;;4907341;29;20690;-81
2023/05/30 01:03:08;;;;;;;8.02;5.53;;;17.60;99.90;;;;;;4907735;29;20139;-83
2023/05/30 01:09:52;;;;;;;;;;;;;;;;;;;;;
2023/05/30 01:13:36;;;;;;;7.93;5.28;;;17.50;99.90;;;;;;4849844;29;20407;-81
2023/05/30 01:19:27;;;;;;;14.82;5.10;;;17.60;99.90;;;;;;5391725;23;20032;-83
2023/05/30 01:23:32;;;;;;;9.68;5.35;;;17.60;99.90;;;;;;4854853;29;20060;-84
2023/05/30 01:27:07;;;;;;;8.30;5.10;;;17.50;99.90;;;;;;4837259;29;20059;-84
2023/05/30 01:31:10;;;;;;;10.73;5.72;;;17.30;99.90;;;;;;4884611;29;20067;-81
2023/05/30 01:33:22;;;;;;;9.27;5.97;;;17.40;99.90;;;;;;4885716;29;20078;-84
2023/05/30 01:38:59;;;;;;;7.90;5.43;;;17.20;99.90;;;;;;5361365;23;20079;-82
2023/05/30 01:41:42;;;;;;;11.05;6.45;;;17.40;99.90;;;;;;4880334;29;20041;-82
2023/05/30 01:45:14;;;;;;;9.32;5.50;;;17.30;99.90;;;;;;4926194;29;20051;-79
2023/05/30 01:52:20;;;;;;;9.82;5.97;;;17.10;99.90;;;;;;4897053;29;20293;-79
2023/05/30 01:54:54;;;;;;;11.30;5.47;;;16.50;99.90;;;;;;4902326;29;20058;-79
2023/05/30 01:57:25;;;;;;;8.82;5.90;;;16.40;99.90;;;;;;4904395;29;20072;-79
2023/05/30 01:59:57;;;;;;;9.55;5.55;;;16.40;99.90;;;;;;4895752;29;20485;-81
2023/05/30 02:02:57;;;;;;;8.52;5.20;;;16.60;99.90;;;;;;4902555;29;20052;-81
2023/05/30 02:06:04;;;;;;;11.77;5.70;;;16.90;99.90;;;;;;5020491;23;20050;-80
2023/05/30 02:08:45;;;;;;;7.70;5.78;;;17.10;99.90;;;;;;4896525;29;20064;-79
2023/05/30 02:11:17;;;;;;;12.23;5.05;;;17.20;99.90;;;;;;4916462;29;20079;-79
2023/05/30 02:14:17;;;;;;;10.82;5.40;;;17.30;99.90;;;;;;4908485;29;20052;-80
2023/05/30 02:16:46;;;;;;;8.37;5.53;;;17.30;99.90;;;;;;4905526;29;20093;-78
2023/05/30 02:19:14;;;;;;;8.95;5.18;;;17.50;99.90;;;;;;4886577;29;20287;-78
2023/05/30 02:21:42;;;;;;;10.82;6.20;;;17.50;99.90;;;;;;4904719;29;20052;-78
2023/05/30 02:27:29;;;;;;;9.27;5.10;;;17.40;99.90;;;;;;4898463;29;20048;-79
2023/05/30 02:29:58;;;;;;;9.00;5.80;;;17.40;99.90;;;;;;4898896;29;20060;-79
2023/05/30 02:32:26;;;;;;;13.63;6.97;;;17.30;99.90;;;;;;4898875;29;20292;-78
2023/05/30 02:34:54;;;;;;;9.32;5.78;;;17.30;99.90;;;;;;4905678;29;20052;-78
2023/05/30 02:37:22;;;;;;;10.57;5.70;;;17.30;99.90;;;;;;4893065;29;20371;-79
2023/05/30 02:39:51;;;;;;;9.77;5.80;;;17.30;99.90;;;;;;4904407;29;20505;-80
2023/05/30 02:42:19;;;;;;;11.55;6.30;;;17.30;99.90;;;;;;4905514;29;20054;-81
2023/05/30 02:44:47;;;;;;;14.18;6.30;;;17.30;99.90;;;;;;4913306;29;20049;-80
2023/05/30 02:47:14;;;;;;;11.85;6.70;;;17.20;99.90;;;;;;4902206;29;20053;-78
2023/05/30 02:49:47;;;;;;;9.55;7.13;;;17.30;99.90;;;;;;4907010;29;20045;-83
2023/05/30 02:52:16;;;;;;;12.68;7.68;;;17.20;99.90;;;;;;4917749;29;20108;-82
2023/05/30 02:54:44;;;;;;;13.02;7.30;;;17.20;99.90;;;;;;4924198;29;20440;-82
2023/05/30 02:57:25;;;;;;;12.40;6.75;;;17.10;99.90;;;;;;4893273;29;20488;-79
2023/05/30 02:59:53;;;;;;;10.10;7.25;;;17.00;99.90;;;;;;4919077;29;20052;-78
2023/05/30 03:02:21;;;;;;;17.35;7.72;;;16.90;99.90;;;;;;4900761;29;20060;-79
2023/05/30 03:04:48;;;;;;;11.63;7.47;;;17.00;99.90;;;;;;4901039;29;20138;-81
2023/05/30 03:07:17;;;;;;;11.68;6.78;;;17.00;99.90;;;;;;4906988;29;20462;-80
2023/05/30 03:10:26;;;;;;;10.85;7.38;;;17.00;99.90;;;;;;4919911;29;20052;-79
2023/05/30 03:15:50;;;;;;;13.52;6.50;;;17.00;99.90;;;;;;5341815;23;20051;-79
2023/05/30 03:21:52;;;;;;;11.07;6.13;;;17.20;99.90;;;;;;4927149;29;20037;-81
2023/05/30 03:24:33;;;;;;;10.35;6.03;;;17.20;99.90;;;;;;4904648;29;20135;-83
2023/05/30 03:30:22;;;;;;;11.93;6.68;;;17.10;99.90;;;;;;4782864;29;20401;-80
2023/05/30 03:33:14;;;;;;;;;;;17.00;99.90;;;;;;5546350;23;20142;31
2023/05/30 03:35:43;;;;;;;11.10;5.80;;;17.00;99.90;;;;;;4918577;29;19923;-80
2023/05/30 03:38:18;;;;;;;9.00;6.22;;;16.90;99.90;;;;;;4905619;29;20403;-79
2023/05/30 03:44:27;;;;;;;9.13;5.93;;;16.90;99.90;;;;;;4923795;29;20052;-81
2023/05/30 03:47:08;;;;;;;10.00;5.68;;;17.00;99.90;;;;;;4938844;23;20057;-86
2023/05/30 03:50:15;;;;;;;9.85;5.63;;;17.10;99.90;;;;;;4908517;29;20048;-85
2023/05/30 03:53:01;;;;;;;8.48;5.32;;;17.10;99.90;;;;;;4912358;29;20078;-87
2023/05/30 03:55:44;;;;;;;11.57;5.47;;;17.10;99.90;;;;;;4968346;23;20055;-81
2023/05/30 03:58:25;;;;;;;10.70;5.32;;;17.10;99.90;;;;;;4876871;29;20502;-81
2023/05/30 04:00:55;;;;;;;8.20;5.10;;;17.10;99.90;;;;;;4904153;29;20084;-81
2023/05/30 04:03:24;;;;;;;9.38;5.07;;;17.00;99.90;;;;;;4905500;29;20127;-80
2023/05/30 04:06:08;;;;;;;7.03;4.90;;;17.10;99.90;;;;;;4897464;29;20053;-82
2023/05/30 04:09:07;;;;;;;;;;;;;;;;;;;;;
2023/05/30 04:12:37;;;;;;;7.70;4.97;;;16.90;99.90;;;;;;5060349;23;20531;-81
2023/05/30 04:15:19;;;;;;;9.25;5.30;;;16.90;99.90;;;;;;4923164;29;20083;-82
2023/05/30 04:18:01;;;;;;;9.05;5.20;;;17.00;99.90;;;;;;4914030;29;20051;-81
2023/05/30 04:20:42;;;;;;;9.40;4.93;;;17.10;99.90;;;;;;4912454;29;20089;-82
2023/05/30 04:23:23;;;;;;;8.98;5.28;;;17.10;99.90;;;;;;4901960;29;20056;-81
2023/05/30 04:26:00;;;;;;;10.63;6.10;;;17.30;99.90;;;;;;4907967;29;20052;-83
2023/05/30 04:28:42;;;;;;;11.65;5.82;;;17.40;99.90;;;;;;4906450;29;20078;-80
2023/05/30 04:31:29;;;;;;;13.15;5.43;;;17.40;99.90;;;;;;4914274;29;20072;-85
2023/05/30 04:34:11;;;;;;;10.00;5.63;;;17.40;99.90;;;;;;4904825;29;20052;-84
2023/05/30 04:36:53;;;;;;;10.38;5.32;;;17.50;99.90;;;;;;4917734;29;20041;-86
2023/05/30 04:39:35;;;;;;;10.45;5.30;;;17.50;99.90;;;;;;4915471;29;20052;-82
2023/05/30 04:42:28;;;;;;;11.20;6.07;;;17.50;99.90;;;;;;4929383;29;20051;-87
2023/05/30 04:45:26;;;;;;;11.15;6.60;;;17.70;99.90;;;;;;4897076;29;20072;-81
2023/05/30 04:47:58;;;;;;;10.55;6.78;;;17.70;99.90;;;;;;4919618;29;20054;-83
2023/05/30 04:50:39;;;;;;;13.93;6.35;;;17.60;99.90;;;;;;4895560;29;20100;-80
2023/05/30 04:53:21;;;;;;;9.52;6.68;;;17.60;99.90;;;;;;4914349;29;20052;-79
2023/05/30 05:01:48;;;;;;;59.60;40.05;;;17.80;99.90;;;;;;4932423;23;20048;-82
2023/05/30 05:05:21;;;;;;;92.07;55.55;;;18.00;99.90;;;;;;4913446;29;20036;-82
2023/05/30 05:07:49;;;;;;;143.27;90.38;;;18.10;99.90;;;;;;4893969;29;20044;-80
2023/05/30 05:10:18;;;;;;;38.75;27.23;;;18.20;99.90;;;;;;4926255;29;20098;-84
2023/05/30 05:13:47;;;;;;;37.28;23.42;;;18.10;99.90;;;;;;5028200;23;20038;-78
2023/05/30 05:16:33;;;;;;;30.02;16.95;;;17.90;99.90;;;;;;4913262;29;20120;-82
2023/05/30 05:22:43;;;;;;;15.38;8.98;;;18.30;99.90;;;;;;4896446;29;20051;-75
2023/05/30 05:25:12;;;;;;;14.52;8.15;;;18.40;99.90;;;;;;4896790;29;20069;-79
2023/05/30 05:27:40;;;;;;;11.27;8.05;;;18.40;99.90;;;;;;4908174;29;20123;-79
2023/05/30 05:31:10;;;;;;;13.60;8.38;;;18.40;99.90;;;;;;4900824;29;20113;-76
2023/05/30 05:37:07;;;;;;;16.55;8.00;;;18.50;99.90;;;;;;5015870;23;20355;-78
2023/05/30 05:39:58;;;;;;;11.93;7.60;;;18.30;99.90;;;;;;4906663;29;20058;-77
2023/05/30 05:46:23;;;;;;;12.80;7.00;;;18.50;99.90;;;;;;4904615;29;20052;-77
2023/05/30 05:48:51;;;;;;;15.18;8.23;;;18.40;99.90;;;;;;4894880;29;20048;-76
2023/05/30 05:51:21;;;;;;;14.70;7.85;;;18.60;99.90;;;;;;4887144;29;20101;-76
2023/05/30 05:53:56;;;;;;;16.08;8.95;;;18.80;99.90;;;;;;4901418;29;20064;-82
2023/05/30 05:56:26;;;;;;;42.53;25.52;;;18.80;99.90;;;;;;4913033;29;20116;-79
2023/05/30 05:58:55;;;;;;;35.45;23.38;;;18.80;99.90;;;;;;4896306;29;20045;-82
2023/05/30 06:01:36;;;;;;;14.75;9.20;;;18.70;99.90;;;;;;4897688;29;20056;-80
2023/05/30 06:04:24;;;;;;;14.88;7.03;;;18.70;99.90;;;;;;4882988;29;20713;-83
2023/05/30 06:07:05;;;;;;;13.45;7.85;;;18.50;99.90;;;;;;4843436;29;20050;-81
2023/05/30 06:09:43;;;;;;;11.27;6.80;;;18.50;99.90;;;;;;4867154;29;20393;-79
2023/05/30 06:25:19;;;;;;;18.35;7.85;;;18.60;99.90;;;;;;5353328;23;20055;-80
2023/05/30 06:27:59;;;;;;;17.35;8.43;;;18.70;99.90;;;;;;4915751;29;20440;-81
2023/05/30 06:30:29;;;;;;;15.40;8.82;;;18.60;99.90;;;;;;4917442;29;20044;-80
2023/05/30 06:33:10;;;;;;;15.65;7.65;;;18.70;99.90;;;;;;4938520;24;20068;-80
2023/05/30 06:35:42;;;;;;;12.10;8.23;;;18.90;99.90;;;;;;4925135;29;20044;-80
2023/05/30 06:41:13;;;;;;;13.05;7.35;;;19.00;99.90;;;;;;5580688;23;20717;-80
2023/05/30 06:47:57;;;;;;;16.15;10.02;;;19.00;99.90;;;;;;5486537;23;20039;-78
2023/05/30 06:51:17;;;;;;;12.05;8.52;;;19.00;99.90;;;;;;4905633;29;20063;-83
2023/05/30 07:12:27;;;;;;;15.45;8.20;;;19.70;99.90;;;;;;4963341;23;20040;-80
2023/05/30 07:19:40;;;;;;;16.13;7.90;;;19.70;99.90;;;;;;4930014;29;20028;-82
2023/05/30 07:22:45;;;;;;;12.98;7.45;;;19.90;99.90;;;;;;5818861;23;20035;-81
2023/05/30 07:28:31;;;;;;;16.30;7.03;;;19.80;99.90;;;;;;4681088;26;20035;-82
2023/05/30 07:35:02;;;;;;;12.23;7.00;;;20.00;99.90;;;;;;5455850;23;20125;-79
2023/05/30 07:45:11;;;;;;;14.70;8.43;;;20.50;99.90;;;;;;5009208;23;20075;-88
2023/05/30 08:05:54;;;;;;;11.50;6.68;;;21.00;99.90;;;;;;4259440;24;19926;-80
2023/05/30 08:08:35;;;;;;;13.95;6.72;;;21.00;99.90;;;;;;4890972;29;20056;-81
2023/05/30 08:15:01;;;;;;;13.60;7.13;;;21.20;99.90;;;;;;4882470;29;20146;-82
2023/05/30 08:17:33;;;;;;;13.57;7.38;;;21.10;99.90;;;;;;4888489;29;20073;-78
2023/05/30 08:21:01;;;;;;;10.50;6.38;;;21.10;99.90;;;;;;4826337;29;20050;-80
2023/05/30 08:24:33;;;;;;;10.90;6.40;;;21.10;99.90;;;;;;4836905;29;20103;-81
2023/05/30 08:34:53;;;;;;;18.17;7.47;;;21.30;99.90;;;;;;5029344;23;20059;-82
2023/05/30 08:45:13;;;;;;;8.02;4.97;;;21.50;99.90;;;;;;5019248;23;20052;-82
2023/05/30 09:01:59;;;;;;;14.43;5.40;;;21.90;99.90;;;;;;4959115;23;20101;-81
2023/05/30 09:07:35;;;;;;;9.40;4.28;;;22.00;99.90;;;;;;5046883;23;20047;-79
2023/05/30 09:14:31;;;;;;;9.15;4.15;;;22.20;99.90;;;;;;4912826;29;20104;-79
2023/05/30 09:21:01;;;;;;;6.22;4.00;;;22.30;99.90;;;;;;4892536;29;20044;-80
2023/05/30 09:27:24;;;;;;;8.18;4.75;;;22.60;99.90;;;;;;5019225;23;20423;-80
2023/05/30 09:33:15;;;;;;;9.68;4.38;;;22.50;99.90;;;;;;3488907;23;20028;-82
2023/05/30 10:04:33;;;;;;;8.68;3.90;;;23.90;99.90;;;;;;5552868;23;20107;-80
2023/05/30 10:16:51;;;;;;;12.98;4.50;;;23.80;99.90;;;;;;5229435;23;20049;-78
2023/05/30 10:23:12;;;;;;;5.68;3.08;;;24.00;99.20;;;;;;4923475;29;20411;-79
2023/05/30 10:25:47;;;;;;;8.43;3.78;;;24.30;97.50;;;;;;4919158;29;20055;-78
2023/05/30 10:32:01;;;;;;;10.25;4.15;;;24.40;96.70;;;;;;5120261;23;20043;-84
2023/05/30 10:38:24;;;;;;;11.07;3.83;;;24.20;98.10;;;;;;4923308;29;20080;-80
2023/05/30 10:40:57;;;;;;;5.80;3.08;;;24.30;99.00;;;;;;4915002;29;20437;-79
2023/05/30 10:43:50;;;;;;;11.15;3.20;;;24.50;93.30;;;;;;4909228;29;20056;-80
2023/05/30 10:55:27;;;;;;;11.30;3.88;;;25.10;93.40;;;;;;4925287;29;20106;-81
2023/05/30 10:58:00;;;;;;;9.95;3.88;;;24.80;94.40;;;;;;4928569;29;20551;-78
2023/05/30 11:00:31;;;;;;;7.85;3.70;;;25.00;93.70;;;;;;4926722;29;20059;-76
2023/05/30 11:03:06;;;;;;;7.82;3.33;;;25.30;94.00;;;;;;4908617;29;20115;-79
2023/05/30 11:06:00;;;;;;;6.30;2.88;;;25.40;94.10;;;;;;4896361;29;20055;-78
2023/05/30 11:09:03;;;;;;;10.20;4.00;;;25.30;93.30;;;;;;4921149;29;20080;-80
2023/05/30 11:12:06;;;;;;;8.15;2.80;;;25.10;92.70;;;;;;4921832;29;20393;-80
2023/05/30 11:15:07;;;;;;;8.20;3.35;;;25.20;92.10;;;;;;4907085;29;20116;-79
2023/05/30 11:18:30;;;;;;;;;;;25.10;93.30;;;;;;4887588;29;20080;-79
2023/05/30 11:22:01;;;;;;;8.77;5.25;;;25.30;91.90;;;;;;4903874;29;19918;-80
2023/05/30 11:24:30;;;;;;;5.97;3.58;;;25.70;90.90;;;;;;4925598;29;20063;-78
2023/05/30 11:27:12;;;;;;;8.02;3.33;;;25.90;90.70;;;;;;4917154;29;20048;-80
2023/05/30 11:33:18;;;;;;;9.00;3.47;;;25.90;91.10;;;;;;4922635;29;19931;-81
2023/05/30 11:35:48;;;;;;;5.13;2.95;;;26.30;91.20;;;;;;4903017;29;20048;-77
2023/05/30 11:38:21;;;;;;;5.85;3.35;;;26.50;91.30;;;;;;4909628;29;20441;-80
2023/05/30 11:47:55;;;;;;;6.90;3.25;;;26.50;90.10;;;;;;4980859;23;20060;-79
2023/05/30 12:06:24;;;;;;;4.45;2.65;;;26.90;85.50;;;;;;4865513;29;20045;-80
2023/05/30 12:09:06;;;;;;;5.10;2.63;;;27.60;83.80;;;;;;4855854;29;20078;-79
2023/05/30 12:14:42;;;;;;;4.93;2.55;;;27.50;82.30;;;;;;4890699;29;20049;-80
2023/05/30 12:17:45;;;;;;;4.88;2.50;;;27.20;82.10;;;;;;4881649;29;20113;-78
2023/05/30 12:21:18;;;;;;;8.52;2.60;;;27.20;81.90;;;;;;4892176;29;20478;-81
2023/05/30 12:24:08;;;;;;;6.18;2.70;;;27.60;82.10;;;;;;4883746;29;20053;-78
2023/05/30 12:30:50;;;;;;;5.68;2.70;;;27.20;79.70;;;;;;4840654;29;20049;-80
2023/05/30 12:33:47;;;;;;;5.10;2.85;;;27.40;79.10;;;;;;4826696;29;20050;-80
2023/05/30 12:40:29;;;;;;;7.07;2.60;;;28.50;81.60;;;;;;4828607;29;20105;-81
2023/05/30 12:42:57;;;;;;;7.60;3.00;;;28.70;82.00;;;;;;5084954;24;20059;-79
2023/05/30 12:45:27;;;;;;;4.55;2.50;;;28.70;79.40;;;;;;4917033;29;20040;-79
2023/05/30 13:02:20;;;;;;;5.70;2.30;;;28.10;77.40;;;;;;4901435;29;20275;-79
2023/05/30 13:08:51;;;;;;;4.82;2.55;;;29.30;75.20;;;;;;4901012;29;19950;-81
2023/05/30 13:11:21;;;;;;;5.63;2.40;;;28.70;73.60;;;;;;4917775;29;20080;-80
2023/05/30 13:13:51;;;;;;;;;;;28.10;74.30;;;;;;4911127;29;20084;-81
2023/05/30 13:16:35;;;;;;;4.38;2.17;;;27.60;76.40;;;;;;4898845;29;19927;-82
2023/05/30 13:22:07;;;;;;;6.10;2.40;;;27.20;77.00;;;;;;5007823;23;20056;-82
2023/05/30 13:24:50;;;;;;;5.07;2.70;;;27.10;79.30;;;;;;4890410;29;20055;-81
2023/05/30 13:31:49;;;;;;;10.43;3.45;;;28.00;79.20;;;;;;4924867;29;20043;-79
2023/05/30 13:38:33;;;;;;;5.80;2.95;;;28.80;76.90;;;;;;4899858;29;20056;-78
2023/05/30 13:41:14;;;;;;;16.02;3.75;;;28.80;76.40;;;;;;4906614;29;20073;-78
2023/05/30 13:47:39;;;;;;;6.75;3.13;;;30.00;74.00;;;;;;4921471;29;20044;-78
2023/05/30 13:50:11;;;;;;;6.38;2.92;;;29.60;73.20;;;;;;4943053;29;20052;-78
2023/05/30 13:53:17;;;;;;;7.68;3.03;;;28.10;76.80;;;;;;4848112;29;20072;-79
2023/05/30 13:56:32;;;;;;;4.90;3.00;;;26.80;77.30;;;;;;4928156;23;20055;-78
2023/05/30 14:09:24;;;;;;;9.93;2.42;;;25.60;87.90;;;;;;5023610;23;20087;-80
2023/05/30 14:11:59;;;;;;;8.73;2.15;;;25.20;89.70;;;;;;4929140;29;20104;-80
2023/05/30 14:15:05;;;;;;;3.72;2.05;;;24.60;90.30;;;;;;4926140;29;20150;-80
2023/05/30 14:17:34;;;;;;;4.95;1.98;;;24.20;90.90;;;;;;4931314;29;20052;-80
2023/05/30 14:20:36;;;;;;;4.95;2.10;;;24.10;90.20;;;;;;4929393;29;20048;-80
2023/05/30 14:23:11;;;;;;;5.80;2.80;;;24.00;90.50;;;;;;4911794;29;20058;-78
2023/05/30 14:25:42;;;;;;;4.93;2.40;;;23.60;92.10;;;;;;4910709;29;20449;-79
2023/05/30 14:30:55;;;;;;;6.68;2.05;;;23.70;92.20;;;;;;5081813;23;20306;-78
2023/05/30 14:36:19;;;;;;;5.50;2.88;;;24.10;91.70;;;;;;5167230;23;20036;-80
2023/05/30 14:38:48;;;;;;;8.25;4.07;;;23.90;90.70;;;;;;4913334;29;20154;-80
2023/05/30 14:51:18;;;;;;;10.27;3.50;;;22.00;99.90;;;;;;4912545;29;20055;-80
2023/05/30 14:54:19;;;;;;;9.50;3.47;;;21.40;99.90;;;;;;4897572;29;20056;-79
2023/05/30 14:57:42;;;;;;;5.85;3.00;;;21.20;99.90;;;;;;4923781;29;20050;-80
2023/05/30 15:00:30;;;;;;;7.72;3.20;;;20.80;99.90;;;;;;4938720;29;20112;-79
2023/05/30 15:03:14;;;;;;;5.80;3.25;;;20.90;99.90;;;;;;4911090;29;20147;-78
2023/05/30 15:06:36;;;;;;;4.57;3.17;;;20.80;99.90;;;;;;4897796;29;20067;-77
2023/05/30 15:09:30;;;;;;;9.52;3.58;;;21.00;99.90;;;;;;4913896;29;20063;-78
2023/05/30 15:12:15;;;;;;;5.93;3.00;;;21.00;99.90;;;;;;4882276;23;20140;-78
2023/05/30 15:14:47;;;;;;;7.70;3.03;;;20.90;99.90;;;;;;4924665;29;20091;-77
2023/05/30 15:17:17;;;;;;;29.95;18.30;;;20.70;99.90;;;;;;4894362;29;20040;-78
2023/05/30 15:20:06;;;;;;;9.48;6.97;;;20.70;99.90;;;;;;4894280;29;20078;-77
2023/05/30 15:26:23;;;;;;;7.38;2.72;;;20.80;99.90;;;;;;4891511;29;20052;-77
2023/05/30 15:29:05;;;;;;;8.30;3.20;;;20.80;99.90;;;;;;4905442;29;20054;-76
2023/05/30 15:40:54;;;;;;;8.40;4.00;;;20.30;99.90;;;;;;4900774;29;20058;-78
2023/05/30 15:44:18;;;;;;;6.88;3.20;;;20.70;99.90;;;;;;4906352;29;20045;-75
2023/05/30 15:47:52;;;;;;;6.65;4.00;;;20.70;99.90;;;;;;4914557;29;20058;-78
2023/05/30 15:50:49;;;;;;;5.93;3.35;;;20.50;99.90;;;;;;4905772;29;20057;-77
2023/05/30 15:57:57;;;;;;;6.15;3.25;;;20.50;99.90;;;;;;4874328;29;20048;-76
2023/05/30 16:01:22;;;;;;;5.40;2.97;;;20.50;99.90;;;;;;4841077;29;20045;-79
2023/05/30 16:04:11;;;;;;;7.90;2.80;;;20.50;99.90;;;;;;4852913;29;20050;-78
2023/05/30 16:07:37;;;;;;;4.82;2.72;;;20.50;99.90;;;;;;4841396;29;20079;-77
2023/05/30 16:11:00;;;;;;;5.78;3.05;;;20.60;99.90;;;;;;4846864;29;20049;-77
2023/05/30 16:14:21;;;;;;;19.45;13.15;;;20.80;99.90;;;;;;4858797;23;20144;-77
2023/05/30 16:18:06;;;;;;;9.77;6.68;;;20.90;99.90;;;;;;4868459;29;20155;-76
2023/05/30 16:20:57;;;;;;;24.48;13.65;;;20.80;99.90;;;;;;4903301;23;20052;-78
2023/05/30 16:23:43;;;;;;;32.58;21.00;;;20.90;99.90;;;;;;4907468;29;20413;-76
2023/05/30 16:26:32;;;;;;;28.15;17.73;;;21.00;99.90;;;;;;4917933;29;20175;-76
2023/05/30 16:29:00;;;;;;;15.23;8.65;;;20.80;99.90;;;;;;4920536;29;20062;-76
2023/05/30 16:31:28;;;;;;;13.07;8.05;;;20.60;99.90;;;;;;4904357;29;20051;-75
2023/05/30 16:34:03;;;;;;;11.98;7.45;;;20.70;99.90;;;;;;4902802;29;20074;-75
2023/05/30 16:37:34;;;;;;;12.15;7.88;;;20.80;99.90;;;;;;5075852;23;20136;-77
2023/05/30 16:40:15;;;;;;;35.92;20.92;;;20.90;99.90;;;;;;4878333;29;20060;-77
2023/05/30 16:42:44;;;;;;;23.00;12.77;;;20.90;99.90;;;;;;4873119;29;20092;-76
2023/05/30 16:45:25;;;;;;;15.48;10.13;;;20.70;99.90;;;;;;4866178;29;20052;-74
2023/05/30 16:47:52;;;;;;;16.88;9.63;;;20.70;99.90;;;;;;4872904;29;20179;-76
2023/05/30 16:50:48;;;;;;;17.00;9.05;;;20.80;99.90;;;;;;4868148;29;20053;-77
2023/05/30 16:53:30;;;;;;;10.00;6.43;;;21.00;99.90;;;;;;4867207;29;20493;-76
2023/05/30 16:56:34;;;;;;;11.93;5.57;;;20.80;99.90;;;;;;4866890;29;20056;-76
2023/05/30 17:03:26;;;;;;;9.77;4.53;;;19.80;99.90;;;;;;4889630;23;20057;-76
2023/05/30 17:06:15;;;;;;;12.57;6.50;;;19.90;99.90;;;;;;4882804;29;20053;-75
2023/05/30 17:09:11;;;;;;;9.63;5.65;;;20.20;99.90;;;;;;4967682;24;20064;-75
2023/05/30 17:11:44;;;;;;;11.73;6.45;;;20.30;99.90;;;;;;4897618;29;20069;-77
2023/05/30 17:14:32;;;;;;;8.57;5.50;;;20.40;99.90;;;;;;4889032;23;20053;-77
2023/05/30 17:17:10;;;;;;;8.52;5.82;;;20.40;99.90;;;;;;4910545;23;20052;-75
2023/05/30 17:19:45;;;;;;;8.57;4.80;;;20.50;99.90;;;;;;4871580;29;20072;-76
2023/05/30 17:22:34;;;;;;;10.80;4.70;;;20.50;99.90;;;;;;4885811;29;20056;-77
2023/05/30 17:25:19;;;;;;;6.50;4.20;;;20.60;99.90;;;;;;4889353;29;20053;-74
2023/05/30 17:28:39;;;;;;;7.18;4.50;;;20.60;99.90;;;;;;4883426;29;20044;-75
2023/05/30 17:31:33;;;;;;;9.73;5.25;;;20.60;99.90;;;;;;4916954;23;20066;-76
2023/05/30 17:34:54;;;;;;;9.93;5.80;;;20.70;99.90;;;;;;4886503;29;20108;-75
2023/05/30 17:37:28;;;;;;;9.50;5.88;;;20.60;99.90;;;;;;4890595;24;20070;-74
2023/05/30 17:39:57;;;;;;;9.63;5.77;;;20.60;99.90;;;;;;4890708;29;20048;-76
2023/05/30 17:42:29;;;;;;;9.15;4.63;;;20.30;99.90;;;;;;4901805;29;20481;-75
2023/05/30 17:45:03;;;;;;;8.93;4.68;;;19.90;99.90;;;;;;4872317;29;20072;-74
2023/05/30 17:48:10;;;;;;;8.10;4.68;;;19.60;99.90;;;;;;4896532;29;20055;-76
2023/05/30 17:50:51;;;;;;;10.02;5.22;;;19.30;99.90;;;;;;4904639;29;20371;-75
2023/05/30 17:53:19;;;;;;;10.18;4.80;;;19.20;99.90;;;;;;4898025;29;20052;-78
2023/05/30 17:56:04;;;;;;;10.45;5.93;;;19.30;99.90;;;;;;4954295;23;20064;-77
2023/05/30 17:59:07;;;;;;;11.02;6.28;;;19.70;99.90;;;;;;4864555;29;20054;-75
2023/05/30 18:01:49;;;;;;;16.95;4.65;;;19.50;99.90;;;;;;4850428;29;20083;-77
2023/05/30 18:05:15;;;;;;;7.88;4.18;;;19.30;99.90;;;;;;4866574;29;20041;-77
2023/05/30 18:11:19;;;;;;;8.82;4.50;;;19.50;99.90;;;;;;4855283;29;20110;-79
2023/05/30 18:20:53;;;;;;;8.50;4.93;;;19.90;99.90;;;;;;4981351;23;20397;-79
2023/05/30 18:23:27;;;;;;;7.40;4.20;;;19.80;99.90;;;;;;4895339;29;20111;-78
2023/05/30 18:26:30;;;;;;;10.77;4.68;;;19.90;99.90;;;;;;4878037;29;20065;-76
2023/05/30 18:33:58;;;;;;;8.10;5.50;;;20.10;99.90;;;;;;4907143;29;20052;-78
2023/05/30 18:37:07;;;;;;;10.05;5.65;;;20.20;99.90;;;;;;4939830;23;20060;-80
2023/05/30 18:39:49;;;;;;;10.05;6.60;;;20.20;99.90;;;;;;4900793;29;20104;-78
2023/05/30 18:42:31;;;;;;;10.82;5.65;;;20.10;99.90;;;;;;4902387;29;20060;-76
2023/05/30 18:45:13;;;;;;;11.45;5.70;;;19.90;99.90;;;;;;4903508;29;20076;-77
2023/05/30 18:48:01;;;;;;;12.82;5.57;;;19.90;99.90;;;;;;4920889;29;20060;-76
2023/05/30 18:52:06;;;;;;;10.25;5.40;;;19.90;99.90;;;;;;4833301;29;20053;-79
2023/05/30 18:55:28;;;;;;;11.60;5.85;;;19.90;99.90;;;;;;4820012;29;20039;-78
2023/05/30 18:58:02;;;;;;;8.52;5.40;;;19.90;99.90;;;;;;4849370;29;20068;-78
2023/05/30 19:02:10;;;;;;;;;;;;;;;;;;;;;
2023/05/30 19:05:16;;;;;;;14.80;10.15;;;19.70;99.90;;;;;;4827096;29;20066;-77
2023/05/30 19:07:47;;;;;;;14.30;9.73;;;19.80;99.90;;;;;;4849747;29;20058;-77
2023/05/30 19:10:15;;;;;;;9.60;6.38;;;19.80;99.90;;;;;;4844048;29;20068;-77
2023/05/30 19:12:59;;;;;;;8.43;5.88;;;19.90;99.90;;;;;;4830988;29;20127;-79
2023/05/30 19:16:03;;;;;;;12.07;6.32;;;19.80;99.90;;;;;;4844065;29;20083;-79
2023/05/30 19:18:36;;;;;;;9.65;5.30;;;19.80;99.90;;;;;;4854457;29;20054;-79
2023/05/30 19:21:12;;;;;;;9.23;5.50;;;19.90;99.90;;;;;;4839104;29;20133;-76
2023/05/30 19:23:57;;;;;;;8.85;5.60;;;19.90;99.90;;;;;;4797819;29;20062;-76
2023/05/30 19:30:33;;;;;;;11.18;5.20;;;19.90;99.90;;;;;;4788000;29;20054;-79
2023/05/30 19:33:06;;;;;;;9.82;5.80;;;19.80;99.90;;;;;;4804599;29;20055;-77
2023/05/30 19:36:12;;;;;;;15.10;6.32;;;19.80;99.90;;;;;;4858505;23;20085;-77
2023/05/30 19:42:57;;;;;;;55.30;38.53;;;19.40;99.90;;;;;;4890471;29;20567;-76
2023/05/30 19:46:17;;;;;;;43.60;30.23;;;19.60;99.90;;;;;;4909534;29;20049;-77
2023/05/30 19:48:45;;;;;;;25.55;15.80;;;19.70;99.90;;;;;;4889233;29;20386;-77
2023/05/30 19:52:16;;;;;;;15.90;8.45;;;19.60;99.90;;;;;;4913813;29;20060;-76
2023/05/30 19:55:03;;;;;;;11.05;6.20;;;19.60;99.90;;;;;;4885440;29;20061;-81
2023/05/30 19:57:39;;;;;;;11.27;8.00;;;19.50;99.90;;;;;;4915293;29;20511;-77
2023/05/30 20:00:18;;;;;;;12.10;6.43;;;19.60;99.90;;;;;;4863646;29;20057;-79
2023/05/30 20:04:10;;;;;;;13.35;5.90;;;19.60;99.90;;;;;;4870794;29;20076;-78
2023/05/30 20:07:21;;;;;;;156.07;104.13;;;19.60;99.90;;;;;;4901494;29;20053;-78
2023/05/30 20:09:59;;;;;;;206.77;129.20;;;19.60;99.90;;;;;;4894561;24;20539;-76
2023/05/30 20:12:52;;;;;;;22.33;16.58;;;19.50;99.90;;;;;;4911902;23;20075;-74
2023/05/30 20:15:53;;;;;;;11.55;6.82;;;19.50;99.90;;;;;;4920904;23;20105;-76
2023/05/30 20:18:29;;;;;;;10.63;5.68;;;19.40;99.90;;;;;;4887920;29;20052;-75
2023/05/30 20:21:39;;;;;;;10.50;5.30;;;19.40;99.90;;;;;;4884654;29;20033;-76
2023/05/30 20:24:15;;;;;;;9.30;5.35;;;19.40;99.90;;;;;;4903029;29;20077;-77
2023/05/30 20:27:19;;;;;;;13.50;5.28;;;19.30;99.90;;;;;;4881800;29;20806;-78
2023/05/30 20:33:48;;;;;;;8.70;5.72;;;19.30;99.90;;;;;;4886441;29;20052;-77
2023/05/30 20:36:45;;;;;;;12.25;5.22;;;19.30;99.90;;;;;;4887717;29;20075;-77
2023/05/30 20:39:24;;;;;;;9.13;5.47;;;19.30;99.90;;;;;;4927050;23;20056;-74
2023/05/30 20:41:57;;;;;;;12.25;6.00;;;19.10;99.90;;;;;;4872103;29;20076;-77
2023/05/30 20:45:36;;;;;;;;;;;;;;;;;;;;;
2023/05/30 20:48:40;;;;;;;10.65;6.22;;;19.30;99.90;;;;;;4892119;29;20053;-75
2023/05/30 20:51:41;;;;;;;10.05;6.50;;;19.20;99.90;;;;;;4888970;29;20117;-76
2023/05/30 20:54:18;;;;;;;9.88;5.88;;;19.20;99.90;;;;;;4862852;29;20053;-74
2023/05/30 20:57:21;;;;;;;9.52;5.80;;;19.20;99.90;;;;;;4903948;29;20056;-78